Big Spring, Illinois
Current Conditions -  °F | °C
As of 5:53 AM on Monday 24 Nov 2014 (Local Time) from KMTO Reporting Station
Light Rain Light Rain  
Wind Chill:   Ceiling: 1200
Heat Index:   Visibility: 10mi
Dew Point:   Wind: 20mph
Humidity: 92%   Direction: 270°W
Pressure: 29.27"   Gusts: 36mph
Location:  39.3144°N, 88.4504°W
Report Text: KMTO 241153Z AUTO 27017G31KT 10SM -RA OVC012 06/04 A2927 RMK AO2 PK WND 28036/1100 WSHFT 1037 SLP911 P0000 60006 70040 T00560044 10128 20056 53036
Loading
Personal Weather Stations






























Interactive Weather Map New forecast layout! Learn more

10-Day Weather Forecast

Advertisements
Track Severe Weather on mobile